createdAt,value
2018-11-12T00:00:10.222Z,7.53
2018-11-12T00:02:38.482Z,7.47
2018-11-12T00:05:06.774Z,8.57
2018-11-12T00:07:35.216Z,7.77
2018-11-12T00:10:03.735Z,7.77
2018-11-12T00:12:32.003Z,8.73
2018-11-12T00:15:00.534Z,8.37
2018-11-12T00:17:28.990Z,10.32
2018-11-12T00:19:58.314Z,9.03
2018-11-12T00:22:26.898Z,9.00
2018-11-12T00:24:55.403Z,8.87
2018-11-12T00:27:23.802Z,9.40
2018-11-12T00:29:53.226Z,9.63
2018-11-12T00:32:21.517Z,10.33
2018-11-12T00:34:49.900Z,10.27
2018-11-12T00:37:18.267Z,10.73
2018-11-12T00:39:46.522Z,9.93
2018-11-12T00:42:14.799Z,10.73
2018-11-12T00:44:43.061Z,10.90
2018-11-12T00:47:11.410Z,11.70
2018-11-12T00:49:39.677Z,13.28
2018-11-12T00:52:08.470Z,11.33
2018-11-12T00:54:36.749Z,11.03
2018-11-12T00:57:05.279Z,11.07
2018-11-12T00:59:33.542Z,11.60
2018-11-12T01:02:01.823Z,11.27
2018-11-12T01:04:30.103Z,11.00
2018-11-12T01:06:58.449Z,11.83
2018-11-12T01:09:26.718Z,11.37
2018-11-12T01:11:54.999Z,11.03
2018-11-12T01:14:23.262Z,11.67
2018-11-12T01:16:51.542Z,11.13
2018-11-12T01:19:19.858Z,11.90
2018-11-12T01:21:48.121Z,12.13
2018-11-12T01:24:16.539Z,11.77
2018-11-12T01:26:44.798Z,12.50
2018-11-12T01:29:13.063Z,13.20
2018-11-12T01:31:41.362Z,11.73
2018-11-12T01:34:09.838Z,13.23
2018-11-12T01:36:38.202Z,12.03
2018-11-12T01:39:09.038Z,13.67
2018-11-12T01:41:37.558Z,14.00
2018-11-12T01:44:06.038Z,13.17
2018-11-12T01:46:34.494Z,12.77
2018-11-12T01:49:02.755Z,13.80
2018-11-12T01:51:31.014Z,13.73
2018-11-12T01:53:59.309Z,13.60
2018-11-12T01:56:27.739Z,13.30
2018-11-12T01:58:56.010Z,13.50
2018-11-12T02:01:24.592Z,12.40
2018-11-12T02:03:52.964Z,13.87
2018-11-12T02:06:21.250Z,12.60
2018-11-12T02:08:49.577Z,13.53
2018-11-12T02:11:17.999Z,12.23
2018-11-12T02:13:46.294Z,12.73
2018-11-12T02:16:16.323Z,14.60
2018-11-12T02:18:47.135Z,13.93
2018-11-12T02:21:18.242Z,15.17
2018-11-12T02:23:46.590Z,12.47
2018-11-12T02:26:14.866Z,11.93
2018-11-12T02:28:43.131Z,14.93
2018-11-12T02:31:11.418Z,14.10
2018-11-12T02:33:39.682Z,14.97
2018-11-12T02:36:07.966Z,15.30
2018-11-12T02:38:36.304Z,15.13
2018-11-12T02:41:04.597Z,13.63
2018-11-12T02:43:32.862Z,16.33
2018-11-12T02:46:01.138Z,17.73
2018-11-12T02:48:29.406Z,16.87
2018-11-12T02:50:57.690Z,15.97
2018-11-12T02:53:25.953Z,17.27
2018-11-12T02:55:54.234Z,15.27
2018-11-12T02:58:22.501Z,15.83
2018-11-12T03:00:50.774Z,14.60
2018-11-12T03:03:19.050Z,15.93
2018-11-12T03:05:49.238Z,15.43
2018-11-12T03:08:17.558Z,13.47
2018-11-12T03:10:45.851Z,15.10
2018-11-12T03:13:14.122Z,16.33
2018-11-12T03:15:42.515Z,15.60
2018-11-12T03:18:10.885Z,15.10
2018-11-12T03:20:39.203Z,17.53
2018-11-12T03:23:07.519Z,17.63
2018-11-12T03:25:35.823Z,18.20
2018-11-12T03:28:04.092Z,16.40
2018-11-12T03:30:32.399Z,14.60
2018-11-12T03:33:00.850Z,17.77
2018-11-12T03:35:29.114Z,18.77
2018-11-12T03:37:57.410Z,17.83
2018-11-12T03:40:25.674Z,19.10
2018-11-12T03:42:53.981Z,19.20
2018-11-12T03:45:23.578Z,15.50
2018-11-12T03:47:51.866Z,17.43
2018-11-12T03:50:21.539Z,15.40
2018-11-12T03:52:49.834Z,16.43
2018-11-12T03:55:19.313Z,14.90
2018-11-12T03:57:47.618Z,14.77
2018-11-12T04:00:21.332Z,14.53
2018-11-12T04:02:49.523Z,15.47
2018-11-12T04:05:17.798Z,16.90
2018-11-12T04:07:46.294Z,16.43
2018-11-12T04:10:16.549Z,14.60
2018-11-12T04:12:44.928Z,15.90
2018-11-12T04:15:15.981Z,15.47
2018-11-12T04:17:44.266Z,14.90
2018-11-12T04:20:13.873Z,14.50
2018-11-12T04:22:46.310Z,15.60
2018-11-12T04:25:14.598Z,15.90
2018-11-12T04:27:42.894Z,15.80
2018-11-12T04:30:13.518Z,19.80
2018-11-12T04:32:42.509Z,16.93
2018-11-12T04:35:11.393Z,14.93
2018-11-12T04:37:39.854Z,15.43
2018-11-12T04:40:12.090Z,17.67
2018-11-12T04:42:40.932Z,17.33
2018-11-12T04:45:10.999Z,16.37
2018-11-12T04:47:39.435Z,16.13
2018-11-12T04:50:09.907Z,15.63
2018-11-12T04:52:38.345Z,19.50
2018-11-12T04:55:07.844Z,17.07
2018-11-12T04:57:36.318Z,18.07
2018-11-12T05:00:05.985Z,17.80
2018-11-12T05:02:34.366Z,17.13
2018-11-12T05:05:02.663Z,17.90
2018-11-12T05:07:30.956Z,22.00
2018-11-12T05:09:59.234Z,21.33
2018-11-12T05:12:27.506Z,21.00
2018-11-12T05:14:55.828Z,17.37
2018-11-12T05:17:24.110Z,16.43
2018-11-12T05:19:52.447Z,17.40
2018-11-12T05:22:20.726Z,14.97
2018-11-12T05:24:49.034Z,17.30
2018-11-12T05:27:17.322Z,17.27
2018-11-12T05:29:45.646Z,16.03
2018-11-12T05:32:13.930Z,16.83
2018-11-12T05:34:42.245Z,17.97
2018-11-12T05:37:10.514Z,23.77
2018-11-12T05:39:38.858Z,21.13
2018-11-12T05:42:07.149Z,19.10
2018-11-12T05:44:35.453Z,19.80
2018-11-12T05:47:03.763Z,18.47
2018-11-12T05:49:32.067Z,15.93
2018-11-12T05:52:00.642Z,17.40
2018-11-12T05:54:29.018Z,16.40
2018-11-12T05:56:57.362Z,17.10
2018-11-12T05:59:25.657Z,16.80
2018-11-12T06:01:53.962Z,18.77
2018-11-12T06:04:22.242Z,18.53
2018-11-12T06:06:50.594Z,17.43
2018-11-12T06:09:18.889Z,17.43
2018-11-12T06:11:47.358Z,16.10
2018-11-12T06:14:15.674Z,16.43
2018-11-12T06:16:43.965Z,16.57
2018-11-12T06:19:12.257Z,15.67
2018-11-12T06:21:40.538Z,15.70
2018-11-12T06:24:08.814Z,16.43
2018-11-12T06:26:37.109Z,16.17
2018-11-12T06:29:05.597Z,17.03
2018-11-12T06:31:34.038Z,16.30
2018-11-12T06:34:02.470Z,16.70
2018-11-12T06:36:31.724Z,16.90
2018-11-12T06:38:59.965Z,16.50
2018-11-12T06:41:28.253Z,16.70
2018-11-12T06:43:56.666Z,16.53
2018-11-12T06:46:25.025Z,16.20
2018-11-12T06:48:53.585Z,14.20
2018-11-12T06:51:21.870Z,15.37
2018-11-12T06:53:50.145Z,15.83
2018-11-12T06:56:18.447Z,15.63
2018-11-12T06:58:46.765Z,14.30
2018-11-12T07:01:15.039Z,17.23
2018-11-12T07:03:44.305Z,16.30
2018-11-12T07:06:12.723Z,16.60
2018-11-12T07:08:41.225Z,14.87
2018-11-12T07:11:09.532Z,15.13
2018-11-12T07:13:38.978Z,16.87
2018-11-12T07:16:07.274Z,18.00
2018-11-12T07:18:35.599Z,17.40
2018-11-12T07:21:04.370Z,16.37
2018-11-12T07:23:32.693Z,17.07
2018-11-12T07:26:00.983Z,16.73
2018-11-12T07:28:29.274Z,18.37
2018-11-12T07:30:57.662Z,18.90
2018-11-12T07:33:25.882Z,18.07
2018-11-12T07:35:54.247Z,15.10
2018-11-12T07:38:22.522Z,18.50
2018-11-12T07:40:50.899Z,17.40
2018-11-12T07:43:19.182Z,16.53
2018-11-12T07:45:47.658Z,18.90
2018-11-12T07:48:16.041Z,16.93
2018-11-12T07:50:44.330Z,17.43
2018-11-12T07:53:12.618Z,16.13
2018-11-12T07:55:40.913Z,17.00
2018-11-12T07:58:09.210Z,17.70
2018-11-12T08:00:37.522Z,18.50
2018-11-12T08:03:08.199Z,17.10
2018-11-12T08:05:36.976Z,18.17
2018-11-12T08:08:05.738Z,18.10
2018-11-12T08:10:34.033Z,18.70
2018-11-12T08:13:02.322Z,16.50
2018-11-12T08:15:30.615Z,18.40
2018-11-12T08:17:59.947Z,17.53
2018-11-12T08:20:28.247Z,18.03
2018-11-12T08:22:56.608Z,18.30
2018-11-12T08:25:24.918Z,17.27
2018-11-12T08:27:53.210Z,18.50
2018-11-12T08:30:23.827Z,14.80
2018-11-12T08:32:53.576Z,15.73
2018-11-12T08:35:21.894Z,26.33
2018-11-12T08:37:50.794Z,25.77
2018-11-12T08:40:20.253Z,19.20
2018-11-12T08:42:48.539Z,16.57
2018-11-12T08:45:17.190Z,15.27
2018-11-12T08:47:47.690Z,14.97
2018-11-12T08:50:20.666Z,15.73
2018-11-12T08:52:49.772Z,14.63
2018-11-12T08:55:19.446Z,16.20
2018-11-12T08:57:49.291Z,14.90
2018-11-12T09:00:18.282Z,13.40
2018-11-12T09:02:46.673Z,15.10
2018-11-12T09:05:15.966Z,15.57
2018-11-12T09:07:45.802Z,14.80
2018-11-12T09:10:16.414Z,14.17
2018-11-12T09:12:44.922Z,12.77
2018-11-12T09:15:13.582Z,13.47
2018-11-12T09:17:42.679Z,14.60
2018-11-12T09:20:13.810Z,13.13
2018-11-12T09:22:42.126Z,14.27
2018-11-12T09:25:14.050Z,13.00
2018-11-12T09:27:42.362Z,11.83
2018-11-12T09:30:12.750Z,12.23
2018-11-12T09:32:41.755Z,13.50
2018-11-12T09:35:12.374Z,12.40
2018-11-12T09:37:40.695Z,12.33
2018-11-12T09:40:12.103Z,13.27
2018-11-12T09:42:40.402Z,14.20
2018-11-12T09:45:09.575Z,11.40
2018-11-12T09:47:37.922Z,12.30
2018-11-12T09:50:08.246Z,12.47
2018-11-12T09:52:36.553Z,11.10
2018-11-12T09:55:05.305Z,11.37
2018-11-12T09:57:33.693Z,11.40
2018-11-12T10:00:02.010Z,10.23
2018-11-12T10:02:30.792Z,9.23
2018-11-12T10:04:59.890Z,9.23
2018-11-12T10:07:28.677Z,10.20
2018-11-12T10:09:57.099Z,8.50
2018-11-12T10:12:25.243Z,9.30
2018-11-12T10:14:54.847Z,9.40
2018-11-12T10:17:22.913Z,9.53
2018-11-12T10:19:48.494Z,8.97
2018-11-12T10:22:16.790Z,8.80
2018-11-12T10:24:45.080Z,8.83
2018-11-12T10:27:13.410Z,9.50
2018-11-12T10:29:41.673Z,9.53
2018-11-12T10:32:10.106Z,8.90
2018-11-12T10:34:38.454Z,8.53
2018-11-12T10:37:06.762Z,8.40
2018-11-12T10:39:35.042Z,8.70
2018-11-12T10:42:03.338Z,8.37
2018-11-12T10:44:31.614Z,9.83
2018-11-12T10:46:59.910Z,9.73
2018-11-12T10:49:28.191Z,8.33
2018-11-12T10:51:57.766Z,8.07
2018-11-12T10:54:26.113Z,9.23
2018-11-12T10:56:54.334Z,9.37
2018-11-12T10:59:22.637Z,9.00
2018-11-12T11:01:58.153Z,8.30
2018-11-12T11:04:29.793Z,8.10
2018-11-12T11:06:58.265Z,7.57
2018-11-12T11:09:26.582Z,8.07
2018-11-12T11:11:54.873Z,9.37
2018-11-12T11:14:23.162Z,9.00
2018-11-12T11:16:51.574Z,8.43
2018-11-12T11:19:19.870Z,9.40
2018-11-12T11:21:48.150Z,8.80
2018-11-12T11:24:16.498Z,7.90
2018-11-12T11:26:44.837Z,8.03
2018-11-12T11:29:13.062Z,8.20
2018-11-12T11:31:41.387Z,8.03
2018-11-12T11:34:09.672Z,7.57
2018-11-12T11:36:38.030Z,8.57
2018-11-12T11:39:08.189Z,7.63
2018-11-12T11:41:36.482Z,7.37
2018-11-12T11:44:04.919Z,7.73
2018-11-12T11:46:33.203Z,8.20
2018-11-12T11:49:01.621Z,8.60
2018-11-12T11:51:29.950Z,8.43
2018-11-12T11:53:58.221Z,7.23
2018-11-12T11:56:27.312Z,7.70
2018-11-12T11:58:55.658Z,7.17
2018-11-12T12:01:24.110Z,8.47
2018-11-12T12:03:56.574Z,7.90
2018-11-12T12:06:24.858Z,7.10
2018-11-12T12:08:53.275Z,7.50
2018-11-12T12:11:21.745Z,6.93
2018-11-12T12:13:50.125Z,7.27
2018-11-12T12:16:18.401Z,6.77
2018-11-12T12:18:46.718Z,7.40
2018-11-12T12:21:15.014Z,6.77
2018-11-12T12:23:43.469Z,6.17
2018-11-12T12:26:12.046Z,7.20
2018-11-12T12:28:40.562Z,5.93
2018-11-12T12:31:08.862Z,5.87
2018-11-12T12:33:37.141Z,6.50
2018-11-12T12:36:05.683Z,6.33
2018-11-12T12:38:33.900Z,6.63
2018-11-12T12:41:02.315Z,6.00
2018-11-12T12:43:30.698Z,6.73
2018-11-12T12:45:59.065Z,5.77
2018-11-12T12:48:27.270Z,6.17
2018-11-12T12:50:55.570Z,7.43
2018-11-12T12:53:23.882Z,5.40
2018-11-12T12:55:52.391Z,5.90
2018-11-12T12:58:20.562Z,6.17
2018-11-12T13:00:48.937Z,6.20
2018-11-12T13:03:17.235Z,5.97
2018-11-12T13:05:45.513Z,5.93
2018-11-12T13:08:13.863Z,6.03
2018-11-12T13:10:42.234Z,6.97
2018-11-12T13:13:10.515Z,6.67
2018-11-12T13:15:38.798Z,6.03
2018-11-12T13:18:07.082Z,7.10
2018-11-12T13:20:35.367Z,7.23
2018-11-12T13:23:03.693Z,5.70
2018-11-12T13:25:32.002Z,5.80
2018-11-12T13:28:00.378Z,5.47
2018-11-12T13:30:28.657Z,5.60
2018-11-12T13:32:56.938Z,6.83
2018-11-12T13:35:25.937Z,6.57
2018-11-12T13:37:54.445Z,5.97
2018-11-12T13:40:24.043Z,5.93
2018-11-12T13:42:53.860Z,5.83
2018-11-12T13:45:22.378Z,7.13
2018-11-12T13:47:50.802Z,6.33
2018-11-12T13:50:20.428Z,6.90
2018-11-12T13:52:49.229Z,8.50
2018-11-12T13:55:18.730Z,8.37
2018-11-12T13:57:47.045Z,7.63
2018-11-12T14:00:17.013Z,7.23
2018-11-12T14:02:46.479Z,6.97
2018-11-12T14:05:16.486Z,7.20
2018-11-12T14:07:45.369Z,7.30
2018-11-12T14:10:15.038Z,8.80
2018-11-12T14:12:43.922Z,6.87
2018-11-12T14:15:15.559Z,8.10
2018-11-12T14:17:44.166Z,7.53
2018-11-12T14:20:12.525Z,8.17
2018-11-12T14:22:40.823Z,8.03
2018-11-12T14:25:11.346Z,6.90
2018-11-12T14:27:39.657Z,6.07
2018-11-12T14:30:09.653Z,5.97
2018-11-12T14:32:38.068Z,6.33
2018-11-12T14:35:07.418Z,5.80
2018-11-12T14:37:35.902Z,7.50
2018-11-12T14:40:04.375Z,5.83
2018-11-12T14:42:32.678Z,6.70
2018-11-12T14:45:01.114Z,6.30
2018-11-12T14:47:29.395Z,6.97
2018-11-12T14:49:57.670Z,6.50
2018-11-12T14:52:25.982Z,8.40
2018-11-12T14:54:54.542Z,8.90
2018-11-12T14:57:23.258Z,8.93
2018-11-12T14:59:51.546Z,9.13
2018-11-12T15:02:19.844Z,9.10
2018-11-12T15:04:48.548Z,8.50
2018-11-12T15:07:16.833Z,8.10
2018-11-12T15:09:45.438Z,7.30
2018-11-12T15:12:13.724Z,7.93
2018-11-12T15:14:42.041Z,7.13
2018-11-12T15:17:10.343Z,7.33
2018-11-12T15:19:38.598Z,7.97
2018-11-12T15:22:06.990Z,7.10
2018-11-12T15:24:35.486Z,7.70
2018-11-12T15:27:04.596Z,8.00
2018-11-12T15:29:33.004Z,6.90
2018-11-12T15:32:01.195Z,8.97
2018-11-12T15:34:29.478Z,9.13
2018-11-12T15:36:57.878Z,10.33
2018-11-12T15:39:26.079Z,11.00
2018-11-12T15:41:54.373Z,9.60
2018-11-12T15:44:22.886Z,10.90
2018-11-12T15:46:51.194Z,9.77
2018-11-12T15:49:19.480Z,10.97
2018-11-12T15:51:47.777Z,11.70
2018-11-12T15:54:16.266Z,9.00
2018-11-12T15:56:44.579Z,10.63
2018-11-12T15:59:12.864Z,10.93
2018-11-12T16:01:41.356Z,10.13
2018-11-12T16:04:09.654Z,13.73
2018-11-12T16:06:38.074Z,12.13
2018-11-12T16:09:10.386Z,12.60
2018-11-12T16:11:38.683Z,12.93
2018-11-12T16:14:07.370Z,13.23
2018-11-12T16:16:36.031Z,11.33
2018-11-12T16:19:04.519Z,12.27
2018-11-12T16:21:32.923Z,11.90
2018-11-12T16:24:01.250Z,12.03
2018-11-12T16:26:29.592Z,13.10
2018-11-12T16:28:57.906Z,10.80
2018-11-12T16:31:26.218Z,11.33
2018-11-12T16:33:54.505Z,9.40
2018-11-12T16:36:22.795Z,10.10
2018-11-12T16:38:51.126Z,8.40
2018-11-12T16:41:19.411Z,8.50
2018-11-12T16:43:47.702Z,10.20
2018-11-12T16:46:16.089Z,9.70
2018-11-12T16:48:44.486Z,8.87
2018-11-12T16:51:12.777Z,10.67
2018-11-12T16:53:41.092Z,8.90
2018-11-12T16:56:09.379Z,7.93
2018-11-12T16:58:38.678Z,9.27
2018-11-12T17:01:07.929Z,8.07
2018-11-12T17:03:36.182Z,8.47
2018-11-12T17:06:04.486Z,10.30
2018-11-12T17:08:32.798Z,9.93
2018-11-12T17:11:01.093Z,10.30
2018-11-12T17:13:29.382Z,9.63
2018-11-12T17:15:57.710Z,9.40
2018-11-12T17:18:26.026Z,10.90
2018-11-12T17:20:54.314Z,9.73
2018-11-12T17:23:22.632Z,10.43
2018-11-12T17:25:50.936Z,10.70
2018-11-12T17:28:19.222Z,11.63
2018-11-12T17:30:47.591Z,12.10
2018-11-12T17:33:15.826Z,11.40
2018-11-12T17:35:44.185Z,10.77
2018-11-12T17:38:12.518Z,11.83
2018-11-12T17:40:40.811Z,11.90
2018-11-12T17:43:09.128Z,9.47
2018-11-12T17:45:37.434Z,9.07
2018-11-12T17:48:05.993Z,10.67
2018-11-12T17:50:34.307Z,10.30
2018-11-12T17:53:02.696Z,9.30
2018-11-12T17:55:30.974Z,9.03
2018-11-12T17:57:59.266Z,9.40
2018-11-12T18:00:33.153Z,8.87
2018-11-12T18:03:01.446Z,9.17
2018-11-12T18:05:29.808Z,8.50
2018-11-12T18:07:58.174Z,9.07
2018-11-12T18:10:26.429Z,10.30
2018-11-12T18:12:55.329Z,9.03
2018-11-12T18:15:24.334Z,9.50
2018-11-12T18:17:52.746Z,11.40
2018-11-12T18:20:22.857Z,10.00
2018-11-12T18:22:52.105Z,10.03
2018-11-12T18:25:20.393Z,10.00
2018-11-12T18:27:48.790Z,9.60
2018-11-12T18:30:20.487Z,11.63
2018-11-12T18:32:49.773Z,11.70
2018-11-12T18:35:18.070Z,11.03
2018-11-12T18:37:46.517Z,12.10
2018-11-12T18:40:16.236Z,11.63
2018-11-12T18:42:44.814Z,12.53
2018-11-12T18:45:15.070Z,12.63
2018-11-12T18:47:43.627Z,13.10
2018-11-12T18:50:14.981Z,14.20
2018-11-12T18:52:43.456Z,13.57
2018-11-12T18:55:11.726Z,13.63
2018-11-12T18:57:40.578Z,13.87
2018-11-12T19:00:10.351Z,14.53
2018-11-12T19:02:38.910Z,15.27
2018-11-12T19:05:12.306Z,14.80
2018-11-12T19:07:41.470Z,15.27
2018-11-12T19:10:13.216Z,17.00
2018-11-12T19:12:41.737Z,17.20
2018-11-12T19:15:12.592Z,18.20
2018-11-12T19:17:41.201Z,16.53
2018-11-12T19:20:09.555Z,17.93
2018-11-12T19:22:37.849Z,18.57
2018-11-12T19:25:07.966Z,19.37
2018-11-12T19:27:36.262Z,18.77
2018-11-12T19:30:05.810Z,18.93
2018-11-12T19:32:34.170Z,18.43
2018-11-12T19:35:02.448Z,20.70
2018-11-12T19:37:30.751Z,20.07
2018-11-12T19:39:59.030Z,19.80
2018-11-12T19:42:27.330Z,19.17
2018-11-12T19:44:55.613Z,15.83
2018-11-12T19:47:23.946Z,16.70
2018-11-12T19:49:52.242Z,16.67
2018-11-12T19:52:20.533Z,14.90
2018-11-12T19:54:48.818Z,14.93
2018-11-12T19:57:17.122Z,17.07
2018-11-12T19:59:45.406Z,11.83
2018-11-12T20:02:13.702Z,12.57
2018-11-12T20:04:42.462Z,13.63
2018-11-12T20:07:10.765Z,13.73
2018-11-12T20:09:39.054Z,14.50
2018-11-12T20:12:07.406Z,15.43
2018-11-12T20:14:35.694Z,14.90
2018-11-12T20:17:04.302Z,14.73
2018-11-12T20:19:33.198Z,14.50
2018-11-12T20:22:01.762Z,15.77
2018-11-12T20:24:30.061Z,15.60
2018-11-12T20:26:58.389Z,16.30
2018-11-12T20:29:27.147Z,15.77
2018-11-12T20:31:55.464Z,15.70
2018-11-12T20:34:23.779Z,11.23
2018-11-12T20:36:52.314Z,12.30
2018-11-12T20:39:20.598Z,13.80
2018-11-12T20:41:49.212Z,12.93
2018-11-12T20:44:17.519Z,13.97
2018-11-12T20:46:45.918Z,14.77
2018-11-12T20:49:14.221Z,12.63
2018-11-12T20:51:42.538Z,13.63
2018-11-12T20:54:10.825Z,13.90
2018-11-12T20:56:39.123Z,14.07
2018-11-12T20:59:07.542Z,14.60
2018-11-12T21:01:35.842Z,16.10
2018-11-12T21:04:04.749Z,16.00
2018-11-12T21:06:33.066Z,13.80
2018-11-12T21:09:01.347Z,13.30
2018-11-12T21:11:29.724Z,15.20
2018-11-12T21:13:57.966Z,14.63
2018-11-12T21:16:26.258Z,14.47
2018-11-12T21:18:54.629Z,15.00
2018-11-12T21:21:23.827Z,14.70
2018-11-12T21:23:52.102Z,15.20
2018-11-12T21:26:20.412Z,15.50
2018-11-12T21:28:48.824Z,14.30
2018-11-12T21:31:17.054Z,14.07
2018-11-12T21:33:45.363Z,15.80
2018-11-12T21:36:13.656Z,15.50
2018-11-12T21:38:41.965Z,16.57
2018-11-12T21:41:10.265Z,16.03
2018-11-12T21:43:38.667Z,15.30
2018-11-12T21:46:06.879Z,18.27
2018-11-12T21:48:35.162Z,18.40
2018-11-12T21:51:03.487Z,16.73
2018-11-12T21:53:31.774Z,18.27
2018-11-12T21:56:00.114Z,19.33
2018-11-12T21:58:28.522Z,18.77
2018-11-12T22:00:56.862Z,19.03
2018-11-12T22:03:25.155Z,17.93
2018-11-12T22:05:53.471Z,17.77
2018-11-12T22:08:21.803Z,19.10
2018-11-12T22:10:50.069Z,18.20
2018-11-12T22:13:18.390Z,17.60
2018-11-12T22:15:46.699Z,19.00
2018-11-12T22:18:14.993Z,17.53
2018-11-12T22:20:43.855Z,18.00
2018-11-12T22:23:12.159Z,17.80
2018-11-12T22:25:40.450Z,18.27
2018-11-12T22:28:08.820Z,15.93
2018-11-12T22:30:37.038Z,17.30
2018-11-12T22:33:06.048Z,18.40
2018-11-12T22:35:34.474Z,17.27
2018-11-12T22:38:02.785Z,16.60
2018-11-12T22:40:31.082Z,16.50
2018-11-12T22:42:59.374Z,16.43
2018-11-12T22:45:27.681Z,16.83
2018-11-12T22:47:55.977Z,16.50
2018-11-12T22:50:24.282Z,17.50
2018-11-12T22:52:52.646Z,17.90
2018-11-12T22:55:21.238Z,15.43
2018-11-12T22:57:49.523Z,21.60
2018-11-12T23:00:25.269Z,17.73
2018-11-12T23:02:54.350Z,16.20
2018-11-12T23:05:22.918Z,15.30
2018-11-12T23:07:51.765Z,15.87
2018-11-12T23:10:20.446Z,14.30
2018-11-12T23:12:48.733Z,12.27
2018-11-12T23:15:17.524Z,11.50
2018-11-12T23:17:45.818Z,12.93
2018-11-12T23:20:24.032Z,13.43
2018-11-12T23:22:52.738Z,13.20
2018-11-12T23:25:21.057Z,14.50
2018-11-12T23:27:49.926Z,13.20
2018-11-12T23:30:19.416Z,14.13
2018-11-12T23:32:47.754Z,13.20
2018-11-12T23:35:17.403Z,12.63
2018-11-12T23:37:46.395Z,13.87
2018-11-12T23:40:15.086Z,15.00
2018-11-12T23:42:43.969Z,15.77
2018-11-12T23:45:12.331Z,14.30
2018-11-12T23:47:40.826Z,15.87
2018-11-12T23:50:14.063Z,17.20
2018-11-12T23:52:42.918Z,17.57
2018-11-12T23:55:11.594Z,15.63
2018-11-12T23:57:39.917Z,17.50
